createdAt,value
2023-04-07T00:01:11.163Z,39.01
2023-04-07T00:03:40.958Z,38.85
2023-04-07T00:06:08.306Z,39.01
2023-04-07T00:08:35.768Z,38.95
2023-04-07T00:11:02.988Z,39.02
2023-04-07T00:13:30.870Z,38.81
2023-04-07T00:15:58.347Z,38.81
2023-04-07T00:18:25.751Z,38.77
2023-04-07T00:20:53.028Z,38.89
2023-04-07T00:23:20.437Z,38.80
2023-04-07T00:25:48.830Z,38.75
2023-04-07T00:28:16.057Z,38.79
2023-04-07T00:30:43.367Z,38.72
2023-04-07T00:33:10.648Z,38.58
2023-04-07T00:35:38.241Z,38.75
2023-04-07T00:38:05.776Z,38.73
2023-04-07T00:40:33.288Z,38.76
2023-04-07T00:43:00.552Z,38.68
2023-04-07T00:45:27.766Z,38.67
2023-04-07T00:47:58.005Z,38.50
2023-04-07T00:50:25.471Z,38.67
2023-04-07T00:52:54.957Z,38.69
2023-04-07T00:55:22.288Z,38.68
2023-04-07T00:57:51.856Z,38.48
2023-04-07T01:00:20.037Z,38.63
2023-04-07T01:03:02.009Z,38.71
2023-04-07T01:05:46.496Z,38.65
2023-04-07T01:08:43.537Z,38.67
2023-04-07T01:11:11.436Z,38.63
2023-04-07T01:13:50.266Z,38.61
2023-04-07T01:16:35.089Z,38.62
2023-04-07T01:19:14.226Z,38.72
2023-04-07T01:21:46.977Z,38.70
2023-04-07T01:24:49.906Z,38.65
2023-04-07T01:27:42.950Z,38.67
2023-04-07T01:30:12.936Z,38.76
2023-04-07T01:32:43.918Z,38.72
2023-04-07T01:35:13.656Z,38.77
2023-04-07T01:37:41.654Z,38.73
2023-04-07T01:40:10.301Z,38.67
2023-04-07T01:42:39.611Z,38.64
2023-04-07T01:45:08.192Z,38.67
2023-04-07T01:47:39.390Z,38.52
2023-04-07T01:50:09.395Z,38.65
2023-04-07T01:52:37.878Z,38.63
2023-04-07T01:55:06.644Z,38.54
2023-04-07T01:57:38.170Z,38.46
2023-04-07T02:00:13.379Z,38.60
2023-04-07T02:02:47.998Z,38.76
2023-04-07T02:05:20.818Z,38.71
2023-04-07T02:08:01.498Z,38.74
2023-04-07T02:10:31.332Z,38.81
2023-04-07T02:13:04.031Z,38.82
2023-04-07T02:15:34.315Z,38.70
2023-04-07T02:18:03.270Z,38.91
2023-04-07T02:20:31.220Z,38.92
2023-04-07T02:22:58.651Z,39.10
2023-04-07T02:25:29.010Z,38.80
2023-04-07T02:27:58.481Z,38.99
2023-04-07T02:30:26.526Z,38.92
2023-04-07T02:32:54.110Z,39.01
2023-04-07T02:35:21.688Z,39.04
2023-04-07T02:37:49.337Z,38.92
2023-04-07T02:40:16.717Z,39.03
2023-04-07T02:42:44.028Z,39.14
2023-04-07T02:45:12.024Z,39.21
2023-04-07T02:47:39.919Z,39.12
2023-04-07T02:50:07.997Z,38.98
2023-04-07T02:52:36.608Z,39.04
2023-04-07T02:55:10.424Z,39.18
2023-04-07T02:57:37.792Z,39.17
2023-04-07T03:00:10.215Z,39.14
2023-04-07T03:03:03.447Z,39.17
2023-04-07T03:05:34.624Z,39.15
2023-04-07T03:08:03.181Z,39.18
2023-04-07T03:10:31.086Z,39.07
2023-04-07T03:12:58.605Z,39.17
2023-04-07T03:15:26.684Z,39.14
2023-04-07T03:17:54.265Z,39.19
2023-04-07T03:20:21.536Z,39.22
2023-04-07T03:22:48.744Z,39.27
2023-04-07T03:25:22.653Z,39.02
2023-04-07T03:27:51.695Z,39.07
2023-04-07T03:30:19.448Z,39.17
2023-04-07T03:32:47.413Z,39.18
2023-04-07T03:35:14.828Z,39.19
2023-04-07T03:37:43.701Z,39.10
2023-04-07T03:40:15.326Z,39.23
2023-04-07T03:42:43.480Z,39.22
2023-04-07T03:45:12.726Z,39.22
2023-04-07T03:47:44.509Z,39.21
2023-04-07T03:50:12.866Z,39.24
2023-04-07T03:52:55.933Z,39.12
2023-04-07T03:55:29.918Z,39.32
2023-04-07T03:58:02.409Z,39.27
2023-04-07T04:00:33.677Z,39.25
2023-04-07T04:03:07.455Z,39.29
2023-04-07T04:05:37.837Z,39.33
2023-04-07T04:08:05.462Z,39.38
2023-04-07T04:10:35.314Z,39.35
2023-04-07T04:13:06.800Z,39.34
2023-04-07T04:15:35.393Z,39.34
2023-04-07T04:18:06.274Z,39.27
2023-04-07T04:20:34.564Z,39.31
2023-04-07T04:23:04.340Z,39.47
2023-04-07T04:25:31.888Z,39.49
2023-04-07T04:27:59.305Z,39.50
2023-04-07T04:30:27.940Z,39.31
2023-04-07T04:32:59.797Z,39.47
2023-04-07T04:35:38.165Z,39.39
2023-04-07T04:38:11.558Z,39.48
2023-04-07T04:40:43.554Z,39.59
2023-04-07T04:43:11.722Z,39.56
2023-04-07T04:45:41.067Z,39.52
2023-04-07T04:48:11.506Z,39.47
2023-04-07T04:50:38.928Z,39.56
2023-04-07T04:53:11.108Z,39.57
2023-04-07T04:55:52.076Z,39.55
2023-04-07T04:58:24.950Z,39.51
2023-04-07T05:01:00.473Z,39.67
2023-04-07T05:03:50.686Z,39.70
2023-04-07T05:06:23.377Z,39.68
2023-04-07T05:08:52.720Z,39.72
2023-04-07T05:11:24.453Z,39.60
2023-04-07T05:13:54.209Z,39.73
2023-04-07T05:16:21.686Z,39.74
2023-04-07T05:18:49.732Z,39.66
2023-04-07T05:21:17.652Z,39.81
2023-04-07T05:23:44.904Z,39.72
2023-04-07T05:26:12.176Z,39.68
2023-04-07T05:28:40.480Z,39.64
2023-04-07T05:31:14.625Z,39.61
2023-04-07T05:33:41.930Z,39.63
2023-04-07T05:36:09.772Z,39.61
2023-04-07T05:38:37.050Z,39.69
2023-04-07T05:41:12.476Z,39.49
2023-04-07T05:43:39.912Z,39.52
2023-04-07T05:46:07.430Z,39.70
2023-04-07T05:48:41.091Z,39.53
2023-04-07T05:51:08.398Z,39.45
2023-04-07T05:53:36.348Z,39.41
2023-04-07T05:56:04.049Z,39.53
2023-04-07T05:58:49.418Z,39.43
2023-04-07T06:01:17.628Z,39.45
2023-04-07T06:03:45.190Z,39.35
2023-04-07T06:06:17.134Z,39.43
2023-04-07T06:08:46.172Z,39.43
2023-04-07T06:11:13.806Z,39.31
2023-04-07T06:13:41.484Z,39.33
2023-04-07T06:16:09.408Z,39.29
2023-04-07T06:18:38.291Z,39.29
2023-04-07T06:21:07.442Z,39.43
2023-04-07T06:23:34.732Z,39.21
2023-04-07T06:26:02.065Z,39.34
2023-04-07T06:28:30.619Z,39.21
2023-04-07T06:30:59.810Z,39.26
2023-04-07T06:33:28.618Z,39.37
2023-04-07T06:35:57.647Z,38.97
2023-04-07T06:38:25.028Z,39.25
2023-04-07T06:40:52.303Z,39.39
2023-04-07T06:43:19.603Z,39.34
2023-04-07T06:45:55.573Z,39.21
2023-04-07T06:48:23.529Z,39.26
2023-04-07T06:50:51.162Z,39.21
2023-04-07T06:53:18.570Z,39.25
2023-04-07T06:55:46.039Z,39.21
2023-04-07T06:58:13.340Z,39.23
2023-04-07T07:00:40.613Z,39.44
2023-04-07T07:03:08.147Z,39.28
2023-04-07T07:05:36.038Z,39.24
2023-04-07T07:08:03.374Z,39.35
2023-04-07T07:10:30.863Z,39.37
2023-04-07T07:12:58.087Z,39.57
2023-04-07T07:15:25.513Z,39.27
2023-04-07T07:17:52.908Z,39.35
2023-04-07T07:20:20.436Z,39.53
2023-04-07T07:22:47.750Z,39.47
2023-04-07T07:25:15.082Z,39.56
2023-04-07T07:27:42.422Z,39.58
2023-04-07T07:30:10.091Z,39.63
2023-04-07T07:32:37.442Z,40.12
2023-04-07T07:35:05.951Z,39.51
2023-04-07T07:37:33.607Z,40.24
2023-04-07T07:40:01.049Z,39.52
2023-04-07T07:42:28.285Z,39.16
2023-04-07T07:44:55.457Z,38.61
2023-04-07T07:47:23.438Z,39.05
2023-04-07T07:49:50.722Z,38.22
2023-04-07T07:52:18.350Z,38.52
2023-04-07T07:54:45.713Z,38.99
2023-04-07T07:57:12.952Z,38.54
2023-04-07T07:59:43.103Z,39.03
2023-04-07T08:02:11.006Z,39.08
2023-04-07T08:04:38.470Z,39.18
2023-04-07T08:07:06.010Z,39.19
2023-04-07T08:09:33.344Z,39.29
2023-04-07T08:12:01.481Z,39.45
2023-04-07T08:14:29.052Z,39.35
2023-04-07T08:16:56.344Z,39.20
2023-04-07T08:19:24.018Z,39.16
2023-04-07T08:21:52.629Z,38.75
2023-04-07T08:24:20.252Z,39.05
2023-04-07T08:26:47.579Z,38.69
2023-04-07T08:29:15.544Z,39.05
2023-04-07T08:31:42.852Z,38.31
2023-04-07T08:34:10.083Z,38.21
2023-04-07T08:36:37.440Z,38.29
2023-04-07T08:39:05.804Z,37.92
2023-04-07T08:41:42.553Z,38.67
2023-04-07T08:44:10.934Z,38.78
2023-04-07T08:46:41.240Z,39.14
2023-04-07T08:49:10.513Z,39.29
2023-04-07T08:51:38.901Z,39.51
2023-04-07T08:54:11.825Z,39.44
2023-04-07T08:56:41.264Z,39.41
2023-04-07T08:59:11.063Z,39.27
2023-04-07T09:01:39.679Z,39.04
2023-04-07T09:04:09.291Z,39.10
2023-04-07T09:06:37.202Z,38.57
2023-04-07T09:09:07.747Z,38.78
2023-04-07T09:11:37.251Z,39.09
2023-04-07T09:14:04.742Z,38.68
2023-04-07T09:16:32.295Z,38.60
2023-04-07T09:19:00.079Z,38.68
2023-04-07T09:21:27.931Z,38.60
2023-04-07T09:23:55.284Z,38.86
2023-04-07T09:26:28.338Z,38.83
2023-04-07T09:28:59.560Z,37.71
2023-04-07T09:31:57.707Z,37.51
2023-04-07T09:34:28.318Z,37.53
2023-04-07T09:36:57.407Z,37.62
2023-04-07T09:39:25.764Z,38.15
2023-04-07T09:41:53.114Z,36.77
2023-04-07T09:44:24.613Z,37.06
2023-04-07T09:46:56.988Z,37.06
2023-04-07T09:49:25.796Z,36.90
2023-04-07T09:52:01.567Z,37.19
2023-04-07T09:54:34.805Z,37.11
2023-04-07T09:57:03.102Z,37.34
2023-04-07T09:59:31.652Z,37.00
2023-04-07T10:02:00.488Z,37.08
2023-04-07T10:04:31.605Z,36.28
2023-04-07T10:07:00.509Z,37.07
2023-04-07T10:09:28.773Z,36.94
2023-04-07T10:11:58.266Z,37.06
2023-04-07T10:14:31.803Z,34.33
2023-04-07T10:17:04.036Z,35.60
2023-04-07T10:19:36.046Z,34.86
2023-04-07T10:22:06.790Z,36.26
2023-04-07T10:24:58.715Z,36.96
2023-04-07T10:27:37.102Z,36.86
2023-04-07T10:30:07.467Z,36.37
2023-04-07T10:32:47.704Z,34.69
2023-04-07T10:35:15.637Z,35.20
2023-04-07T10:38:10.494Z,36.48
2023-04-07T10:40:38.298Z,36.76
2023-04-07T10:43:11.192Z,36.61
2023-04-07T10:45:48.393Z,37.25
2023-04-07T10:48:18.399Z,36.86
2023-04-07T10:50:47.103Z,37.03
2023-04-07T10:53:16.471Z,36.32
2023-04-07T10:55:47.167Z,36.04
2023-04-07T10:58:30.952Z,34.84
2023-04-07T11:01:01.527Z,36.39
2023-04-07T11:03:30.840Z,36.48
2023-04-07T11:06:05.879Z,35.95
2023-04-07T11:08:36.985Z,36.38
2023-04-07T11:11:09.299Z,36.10
2023-04-07T11:13:43.885Z,36.49
2023-04-07T11:16:11.475Z,36.61
2023-04-07T11:18:39.878Z,36.89
2023-04-07T11:21:08.208Z,37.08
2023-04-07T11:23:53.414Z,37.32
2023-04-07T11:26:21.480Z,37.27
2023-04-07T11:28:53.119Z,37.34
2023-04-07T11:31:31.722Z,37.54
2023-04-07T11:34:07.706Z,37.41
2023-04-07T11:36:38.049Z,37.36
2023-04-07T11:39:05.431Z,37.29
2023-04-07T11:41:33.892Z,36.94
2023-04-07T11:44:12.471Z,36.69
2023-04-07T11:47:03.619Z,37.00
2023-04-07T11:49:32.393Z,37.22
2023-04-07T11:52:03.257Z,37.46
2023-04-07T11:54:46.901Z,37.80
2023-04-07T11:57:14.743Z,37.66
2023-04-07T11:59:42.232Z,37.86
2023-04-07T12:02:10.160Z,38.12
2023-04-07T12:04:40.185Z,38.19
2023-04-07T12:07:12.237Z,38.16
2023-04-07T12:09:40.168Z,38.43
2023-04-07T12:12:08.465Z,38.52
2023-04-07T12:14:36.178Z,38.58
2023-04-07T12:17:04.286Z,38.62
2023-04-07T12:19:35.614Z,38.58
2023-04-07T12:22:03.598Z,38.61
2023-04-07T12:24:32.681Z,38.57
2023-04-07T12:27:00.106Z,38.59
2023-04-07T12:29:27.948Z,38.63
2023-04-07T12:31:56.327Z,38.68
2023-04-07T12:34:23.789Z,38.62
2023-04-07T12:36:51.693Z,38.59
2023-04-07T12:39:19.180Z,38.45
2023-04-07T12:41:47.680Z,38.75
2023-04-07T12:44:16.134Z,38.61
2023-04-07T12:46:43.608Z,38.66
2023-04-07T12:49:11.127Z,38.68
2023-04-07T12:51:40.055Z,38.77
2023-04-07T12:54:07.741Z,38.68
2023-04-07T12:56:35.381Z,38.75
2023-04-07T12:59:02.635Z,38.79
2023-04-07T13:01:30.585Z,38.83
2023-04-07T13:03:58.142Z,38.76
2023-04-07T13:06:25.710Z,38.92
2023-04-07T13:08:53.136Z,38.87
2023-04-07T13:11:21.942Z,38.87
2023-04-07T13:13:49.360Z,38.85
2023-04-07T13:16:17.170Z,38.89
2023-04-07T13:18:44.460Z,38.91
2023-04-07T13:21:41.173Z,38.90
2023-04-07T13:23:59.181Z,38.92
2023-04-07T13:26:26.705Z,38.81
2023-04-07T13:28:54.163Z,38.83
2023-04-07T13:31:22.107Z,38.97
2023-04-07T13:33:49.740Z,38.92
2023-04-07T13:36:17.358Z,38.92
2023-04-07T13:38:44.555Z,39.10
2023-04-07T13:41:11.804Z,39.13
2023-04-07T13:43:39.071Z,39.18
2023-04-07T13:46:14.285Z,39.16
2023-04-07T13:48:49.561Z,39.23
2023-04-07T13:51:18.657Z,39.40
2023-04-07T13:53:46.717Z,39.28
2023-04-07T13:56:14.290Z,39.33
2023-04-07T13:58:41.671Z,39.44
2023-04-07T14:01:09.176Z,39.25
2023-04-07T14:03:36.510Z,39.41
2023-04-07T14:06:04.087Z,39.44
2023-04-07T14:08:31.439Z,39.44
2023-04-07T14:10:58.608Z,39.45
2023-04-07T14:13:25.931Z,39.52
2023-04-07T14:15:53.997Z,39.31
2023-04-07T14:18:21.735Z,39.32
2023-04-07T14:20:49.357Z,39.41
2023-04-07T14:23:26.260Z,39.47
2023-04-07T14:26:01.628Z,39.32
2023-04-07T14:28:29.017Z,39.50
2023-04-07T14:30:56.312Z,39.39
2023-04-07T14:33:23.630Z,39.52
2023-04-07T14:35:51.759Z,39.41
2023-04-07T14:38:19.327Z,39.50
2023-04-07T14:40:46.541Z,39.30
2023-04-07T14:43:13.788Z,39.33
2023-04-07T14:45:41.131Z,39.32
2023-04-07T14:48:08.473Z,39.12
2023-04-07T14:50:35.795Z,38.56
2023-04-07T14:53:03.595Z,37.92
2023-04-07T14:55:31.293Z,38.99
2023-04-07T14:57:58.623Z,39.10
2023-04-07T15:00:27.302Z,39.18
2023-04-07T15:02:55.462Z,39.24
2023-04-07T15:05:23.077Z,39.30
2023-04-07T15:07:52.393Z,39.11
2023-04-07T15:10:20.401Z,39.14
2023-04-07T15:12:48.750Z,39.18
2023-04-07T15:15:16.985Z,39.13
2023-04-07T15:17:45.181Z,39.14
2023-04-07T15:20:13.502Z,39.24
2023-04-07T15:22:41.053Z,39.12
2023-04-07T15:25:08.664Z,39.07
2023-04-07T15:27:36.151Z,39.14
2023-04-07T15:30:03.972Z,39.06
2023-04-07T15:32:31.987Z,39.01
2023-04-07T15:34:59.506Z,38.99
2023-04-07T15:37:26.986Z,38.99
2023-04-07T15:39:54.282Z,38.93
2023-04-07T15:42:21.569Z,38.86
2023-04-07T15:44:48.846Z,38.88
2023-04-07T15:47:16.176Z,38.90
2023-04-07T15:49:43.385Z,38.79
2023-04-07T15:52:12.174Z,38.79
2023-04-07T15:54:39.460Z,38.90
2023-04-07T15:57:06.649Z,38.82
2023-04-07T15:59:36.063Z,38.77
2023-04-07T16:02:03.375Z,38.86
2023-04-07T16:04:30.774Z,38.81
2023-04-07T16:06:58.130Z,38.78
2023-04-07T16:09:25.906Z,38.79
2023-04-07T16:11:53.157Z,38.81
2023-04-07T16:14:21.015Z,38.89
2023-04-07T16:16:48.329Z,38.96
2023-04-07T16:19:16.159Z,38.87
2023-04-07T16:21:43.490Z,38.91
2023-04-07T16:24:10.871Z,38.79
2023-04-07T16:26:38.152Z,38.98
2023-04-07T16:29:05.656Z,38.87
2023-04-07T16:31:32.962Z,38.97
2023-04-07T16:34:00.243Z,39.01
2023-04-07T16:36:28.966Z,39.09
2023-04-07T16:38:57.622Z,38.96
2023-04-07T16:41:25.072Z,39.01
2023-04-07T16:43:52.397Z,39.02
2023-04-07T16:46:20.440Z,39.13
2023-04-07T16:48:48.067Z,39.36
2023-04-07T16:51:19.500Z,39.43
2023-04-07T16:53:47.688Z,39.76
2023-04-07T16:56:25.361Z,39.64
2023-04-07T16:58:52.771Z,39.82
2023-04-07T17:01:20.041Z,39.88
2023-04-07T17:03:51.566Z,40.09
2023-04-07T17:06:19.135Z,40.26
2023-04-07T17:08:46.438Z,40.51
2023-04-07T17:11:13.699Z,40.68
2023-04-07T17:13:41.156Z,40.66
2023-04-07T17:16:14.246Z,40.48
2023-04-07T17:18:41.528Z,40.52
2023-04-07T17:21:08.716Z,40.52
2023-04-07T17:23:35.905Z,40.47
2023-04-07T17:26:03.320Z,40.36
2023-04-07T17:28:30.724Z,40.41
2023-04-07T17:30:58.590Z,40.41
2023-04-07T17:33:26.119Z,40.28
2023-04-07T17:35:53.476Z,40.46
2023-04-07T17:38:20.941Z,40.36
2023-04-07T17:40:48.262Z,40.33
2023-04-07T17:43:15.835Z,40.34
2023-04-07T17:45:43.161Z,40.30
2023-04-07T17:48:12.097Z,40.26
2023-04-07T17:50:39.725Z,40.16
2023-04-07T17:53:07.748Z,40.12
2023-04-07T17:55:35.087Z,40.17
2023-04-07T17:58:02.434Z,40.22
2023-04-07T18:00:30.016Z,40.15
2023-04-07T18:02:57.698Z,40.32
2023-04-07T18:05:26.078Z,40.24
2023-04-07T18:07:54.797Z,40.34
2023-04-07T18:10:22.228Z,40.45
2023-04-07T18:12:49.391Z,40.31
2023-04-07T18:15:16.743Z,40.68
2023-04-07T18:17:44.111Z,40.60
2023-04-07T18:20:11.879Z,40.54
2023-04-07T18:22:39.291Z,40.52
2023-04-07T18:25:07.209Z,40.65
2023-04-07T18:27:34.563Z,40.69
2023-04-07T18:30:01.869Z,40.77
2023-04-07T18:32:29.262Z,40.63
2023-04-07T18:34:56.726Z,40.78
2023-04-07T18:37:24.368Z,40.87
2023-04-07T18:39:52.283Z,40.85
2023-04-07T18:42:19.629Z,41.06
2023-04-07T18:44:46.991Z,41.25
2023-04-07T18:47:14.371Z,41.07
2023-04-07T18:49:41.595Z,41.10
2023-04-07T18:52:09.110Z,41.09
2023-04-07T18:54:36.507Z,41.05
2023-04-07T18:57:04.682Z,41.10
2023-04-07T18:59:31.998Z,41.23
2023-04-07T19:01:59.270Z,41.22
2023-04-07T19:04:26.687Z,41.27
2023-04-07T19:06:54.852Z,41.33
2023-04-07T19:09:22.206Z,41.15
2023-04-07T19:11:49.526Z,41.11
2023-04-07T19:14:16.718Z,41.21
2023-04-07T19:16:44.542Z,41.32
2023-04-07T19:19:13.147Z,41.29
2023-04-07T19:21:41.249Z,41.14
2023-04-07T19:24:08.673Z,41.29
2023-04-07T19:26:35.978Z,41.45
2023-04-07T19:29:03.527Z,41.29
2023-04-07T19:31:31.423Z,41.36
2023-04-07T19:33:58.756Z,41.40
2023-04-07T19:36:26.493Z,41.15
2023-04-07T19:38:53.891Z,41.40
2023-04-07T19:41:21.259Z,41.50
2023-04-07T19:43:49.032Z,41.42
2023-04-07T19:46:16.566Z,41.48
2023-04-07T19:48:44.018Z,41.60
2023-04-07T19:51:11.243Z,41.66
2023-04-07T19:53:38.498Z,41.64
2023-04-07T19:56:05.956Z,41.69
2023-04-07T19:58:34.406Z,41.69
2023-04-07T20:01:04.506Z,41.71
2023-04-07T20:03:32.072Z,41.65
2023-04-07T20:05:59.697Z,41.80
2023-04-07T20:08:26.963Z,41.81
2023-04-07T20:10:54.226Z,41.84
2023-04-07T20:13:21.520Z,41.72
2023-04-07T20:15:49.290Z,41.85
2023-04-07T20:18:19.334Z,41.74
2023-04-07T20:20:46.952Z,41.96
2023-04-07T20:23:16.000Z,41.93
2023-04-07T20:25:43.250Z,41.96
2023-04-07T20:28:10.637Z,41.89
2023-04-07T20:30:38.046Z,41.93
2023-04-07T20:33:05.451Z,41.78
2023-04-07T20:35:32.833Z,41.81
2023-04-07T20:38:00.339Z,41.71
2023-04-07T20:40:27.678Z,41.73
2023-04-07T20:42:54.936Z,41.76
2023-04-07T20:45:23.137Z,41.71
2023-04-07T20:47:50.946Z,41.99
2023-04-07T20:50:18.313Z,41.79
2023-04-07T20:52:45.549Z,41.94
2023-04-07T20:55:13.013Z,41.99
2023-04-07T20:57:40.594Z,41.91
2023-04-07T21:00:10.225Z,41.87
2023-04-07T21:02:38.367Z,41.82
2023-04-07T21:05:06.067Z,41.87
2023-04-07T21:07:33.378Z,42.05
2023-04-07T21:10:01.064Z,42.09
2023-04-07T21:12:28.394Z,41.93
2023-04-07T21:14:55.938Z,42.00
2023-04-07T21:17:23.352Z,42.14
2023-04-07T21:19:51.113Z,42.01
2023-04-07T21:22:18.409Z,42.18
2023-04-07T21:24:45.706Z,41.96
2023-04-07T21:27:13.686Z,42.26
2023-04-07T21:29:42.579Z,42.25
2023-04-07T21:32:10.532Z,42.29
2023-04-07T21:34:37.861Z,42.61
2023-04-07T21:37:05.100Z,42.93
2023-04-07T21:39:35.527Z,43.02
2023-04-07T21:42:02.849Z,42.78
2023-04-07T21:44:30.534Z,42.65
2023-04-07T21:46:57.774Z,42.56
2023-04-07T21:49:25.434Z,42.70
2023-04-07T21:51:52.753Z,42.81
2023-04-07T21:54:20.251Z,42.84
2023-04-07T21:56:49.580Z,43.02
2023-04-07T21:59:17.738Z,42.90
2023-04-07T22:01:47.144Z,42.90
2023-04-07T22:04:14.815Z,42.94
2023-04-07T22:06:42.156Z,43.03
2023-04-07T22:09:09.810Z,42.91
2023-04-07T22:11:37.103Z,42.92
2023-04-07T22:14:04.365Z,43.07
2023-04-07T22:16:31.681Z,42.90
2023-04-07T22:18:59.162Z,42.87
2023-04-07T22:21:27.198Z,42.99
2023-04-07T22:23:54.469Z,42.96
2023-04-07T22:26:21.855Z,42.90
2023-04-07T22:28:49.446Z,42.85
2023-04-07T22:31:16.860Z,42.79
2023-04-07T22:33:44.130Z,42.83
2023-04-07T22:36:11.385Z,42.89
2023-04-07T22:38:38.686Z,42.97
2023-04-07T22:41:06.262Z,42.92
2023-04-07T22:43:33.507Z,42.84
2023-04-07T22:46:00.905Z,42.93
2023-04-07T22:48:28.234Z,43.01
2023-04-07T22:50:55.684Z,42.96
2023-04-07T22:53:22.944Z,42.81
2023-04-07T22:55:51.361Z,42.70
2023-04-07T22:58:18.713Z,42.70
2023-04-07T23:00:46.043Z,42.91
2023-04-07T23:03:15.050Z,42.63
2023-04-07T23:05:42.427Z,42.67
2023-04-07T23:08:09.656Z,42.59
2023-04-07T23:10:36.918Z,42.71
2023-04-07T23:13:04.113Z,42.60
2023-04-07T23:15:34.200Z,42.62
2023-04-07T23:18:01.751Z,42.70
2023-04-07T23:20:28.919Z,42.72
2023-04-07T23:22:56.467Z,42.60
2023-04-07T23:25:23.884Z,42.58
2023-04-07T23:27:51.104Z,42.64
2023-04-07T23:30:18.462Z,42.65
2023-04-07T23:32:46.238Z,42.59
2023-04-07T23:35:14.765Z,42.54
2023-04-07T23:37:42.327Z,42.64
2023-04-07T23:40:10.535Z,42.64
2023-04-07T23:42:37.829Z,42.59
2023-04-07T23:45:05.651Z,42.71
2023-04-07T23:47:32.997Z,42.58
2023-04-07T23:50:00.510Z,42.71
2023-04-07T23:52:28.044Z,42.67
2023-04-07T23:54:55.369Z,42.51
2023-04-07T23:57:22.646Z,42.72
2023-04-07T23:59:49.898Z,42.54
